createdAt,value
2023-07-08T00:01:21.767Z,57.12
2023-07-08T00:03:49.733Z,57.17
2023-07-08T00:06:29.343Z,57.11
2023-07-08T00:08:57.008Z,57.06
2023-07-08T00:11:24.179Z,57.01
2023-07-08T00:13:51.024Z,56.91
2023-07-08T00:16:20.406Z,56.82
2023-07-08T00:18:50.022Z,56.68
2023-07-08T00:21:18.773Z,56.69
2023-07-08T00:23:47.781Z,56.52
2023-07-08T00:26:25.378Z,56.41
2023-07-08T00:28:53.098Z,56.53
2023-07-08T00:31:25.819Z,56.49
2023-07-08T00:33:57.019Z,56.49
2023-07-08T00:36:28.029Z,56.60
2023-07-08T00:38:54.945Z,56.61
2023-07-08T00:41:24.189Z,56.60
2023-07-08T00:43:56.863Z,56.66
2023-07-08T00:46:41.642Z,56.48
2023-07-08T00:49:18.503Z,56.34
2023-07-08T00:51:46.480Z,56.31
2023-07-08T00:54:18.512Z,56.47
2023-07-08T00:57:04.363Z,56.61
2023-07-08T00:59:37.233Z,56.46
2023-07-08T01:02:07.588Z,56.44
2023-07-08T01:05:19.286Z,56.60
2023-07-08T01:07:55.125Z,56.47
2023-07-08T01:10:33.720Z,56.58
2023-07-08T01:13:04.963Z,56.46
2023-07-08T01:15:40.926Z,56.33
2023-07-08T01:18:10.714Z,56.26
2023-07-08T01:20:38.379Z,56.25
2023-07-08T01:23:07.294Z,56.34
2023-07-08T01:25:34.946Z,56.40
2023-07-08T01:28:04.498Z,56.38
2023-07-08T01:30:37.158Z,56.48
2023-07-08T01:33:13.598Z,56.44
2023-07-08T01:35:40.361Z,56.38
2023-07-08T01:38:12.605Z,56.43
2023-07-08T01:40:50.387Z,56.65
2023-07-08T01:43:17.436Z,56.47
2023-07-08T01:45:44.923Z,56.47
2023-07-08T01:48:16.584Z,56.55
2023-07-08T01:50:58.186Z,56.42
2023-07-08T01:53:44.907Z,56.32
2023-07-08T01:56:15.503Z,56.06
2023-07-08T01:58:42.983Z,56.19
2023-07-08T02:01:10.058Z,56.55
2023-07-08T02:03:37.390Z,56.63
2023-07-08T02:06:06.451Z,56.66
2023-07-08T02:08:33.553Z,56.79
2023-07-08T02:11:00.464Z,56.72
2023-07-08T02:13:29.171Z,56.56
2023-07-08T02:15:55.951Z,56.39
2023-07-08T02:18:25.974Z,56.72
2023-07-08T02:20:52.938Z,56.72
2023-07-08T02:23:20.238Z,56.52
2023-07-08T02:25:55.253Z,56.63
2023-07-08T02:28:24.587Z,56.50
2023-07-08T02:30:54.640Z,56.41
2023-07-08T02:33:21.413Z,56.65
2023-07-08T02:35:50.524Z,56.48
2023-07-08T02:40:59.336Z,56.39
2023-07-08T02:43:27.257Z,56.22
2023-07-08T02:45:54.080Z,56.36
2023-07-08T02:48:21.550Z,56.56
2023-07-08T02:50:57.402Z,56.46
2023-07-08T02:53:25.722Z,56.64
2023-07-08T02:55:52.608Z,56.58
2023-07-08T02:58:19.338Z,56.46
2023-07-08T03:00:46.104Z,56.57
2023-07-08T03:03:13.060Z,56.60
2023-07-08T03:05:40.777Z,56.65
2023-07-08T03:08:07.553Z,56.83
2023-07-08T03:10:34.285Z,57.08
2023-07-08T03:13:06.141Z,57.20
2023-07-08T03:15:32.956Z,57.44
2023-07-08T03:18:01.135Z,57.48
2023-07-08T03:20:28.415Z,57.68
2023-07-08T03:22:55.806Z,57.79
2023-07-08T03:25:22.896Z,57.89
2023-07-08T03:27:50.200Z,57.92
2023-07-08T03:30:17.599Z,58.05
2023-07-08T03:32:44.526Z,58.03
2023-07-08T03:35:12.048Z,58.05
2023-07-08T03:37:41.992Z,58.00
2023-07-08T03:40:13.906Z,58.33
2023-07-08T03:42:40.705Z,58.41
2023-07-08T03:45:09.284Z,58.17
2023-07-08T03:47:38.527Z,58.18
2023-07-08T03:50:07.540Z,58.05
2023-07-08T03:52:35.500Z,57.90
2023-07-08T03:55:04.789Z,57.92
2023-07-08T03:57:31.677Z,57.80
2023-07-08T03:59:59.726Z,57.74
2023-07-08T04:02:27.059Z,57.80
2023-07-08T04:04:55.060Z,57.66
2023-07-08T04:07:23.483Z,57.72
2023-07-08T04:09:53.123Z,57.69
2023-07-08T04:12:19.936Z,57.90
2023-07-08T04:14:50.033Z,57.58
2023-07-08T04:17:19.438Z,57.16
2023-07-08T04:19:46.198Z,57.11
2023-07-08T04:22:12.952Z,57.03
2023-07-08T04:24:40.352Z,56.77
2023-07-08T04:27:07.174Z,56.68
2023-07-08T04:29:33.984Z,56.51
2023-07-08T04:32:01.025Z,56.37
2023-07-08T04:34:27.803Z,56.42
2023-07-08T04:36:54.541Z,56.26
2023-07-08T04:39:21.254Z,55.72
2023-07-08T04:41:48.436Z,55.70
2023-07-08T04:44:18.027Z,55.61
2023-07-08T04:46:58.359Z,55.39
2023-07-08T04:49:26.104Z,55.63
2023-07-08T04:51:54.072Z,55.62
2023-07-08T04:54:21.057Z,55.66
2023-07-08T04:56:50.367Z,55.57
2023-07-08T04:59:21.037Z,55.56
2023-07-08T05:01:50.316Z,55.58
2023-07-08T05:04:19.664Z,55.51
2023-07-08T05:06:47.216Z,55.10
2023-07-08T05:09:17.264Z,54.84
2023-07-08T05:11:44.839Z,54.77
2023-07-08T05:14:13.894Z,54.65
2023-07-08T05:16:41.805Z,54.79
2023-07-08T05:19:09.206Z,54.53
2023-07-08T05:21:36.134Z,54.73
2023-07-08T05:24:05.475Z,54.40
2023-07-08T05:26:33.425Z,54.36
2023-07-08T05:29:00.977Z,53.88
2023-07-08T05:31:45.507Z,52.76
2023-07-08T05:34:17.088Z,51.77
2023-07-08T05:36:44.638Z,50.98
2023-07-08T05:39:11.900Z,50.71
2023-07-08T05:41:38.651Z,50.26
2023-07-08T05:44:05.502Z,49.81
2023-07-08T05:46:34.787Z,50.00
2023-07-08T05:49:02.144Z,50.09
2023-07-08T05:51:29.204Z,49.81
2023-07-08T05:53:55.886Z,49.81
2023-07-08T05:56:22.889Z,48.99
2023-07-08T05:58:49.620Z,48.49
2023-07-08T06:01:16.350Z,48.28
2023-07-08T06:03:44.835Z,47.71
2023-07-08T06:06:13.018Z,47.38
2023-07-08T06:08:40.060Z,46.70
2023-07-08T06:11:07.023Z,46.24
2023-07-08T06:13:34.383Z,46.09
2023-07-08T06:16:02.017Z,45.73
2023-07-08T06:18:30.462Z,45.85
2023-07-08T06:20:59.436Z,45.71
2023-07-08T06:23:27.003Z,45.50
2023-07-08T06:25:54.698Z,45.36
2023-07-08T06:28:24.183Z,44.94
2023-07-08T06:30:51.159Z,44.81
2023-07-08T06:33:17.930Z,44.55
2023-07-08T06:35:45.605Z,44.47
2023-07-08T06:38:12.710Z,44.14
2023-07-08T06:40:39.690Z,43.59
2023-07-08T06:43:06.387Z,43.71
2023-07-08T06:45:39.035Z,43.90
2023-07-08T06:48:06.607Z,44.18
2023-07-08T06:50:33.549Z,44.25
2023-07-08T06:53:00.332Z,44.47
2023-07-08T06:55:28.189Z,45.49
2023-07-08T06:57:55.007Z,45.88
2023-07-08T07:00:21.750Z,46.74
2023-07-08T07:02:48.531Z,46.22
2023-07-08T07:05:15.607Z,46.01
2023-07-08T07:07:42.404Z,45.87
2023-07-08T07:10:09.402Z,45.50
2023-07-08T07:12:36.663Z,44.37
2023-07-08T07:15:06.060Z,43.95
2023-07-08T07:17:33.047Z,43.73
2023-07-08T07:19:59.831Z,43.40
2023-07-08T07:22:26.578Z,42.80
2023-07-08T07:24:54.639Z,42.05
2023-07-08T07:27:21.562Z,40.80
2023-07-08T07:29:51.026Z,39.67
2023-07-08T07:32:20.383Z,39.66
2023-07-08T07:34:49.911Z,39.17
2023-07-08T07:37:19.135Z,39.15
2023-07-08T07:39:49.579Z,38.90
2023-07-08T07:42:18.954Z,37.71
2023-07-08T07:44:48.049Z,37.62
2023-07-08T07:47:16.160Z,36.57
2023-07-08T07:49:44.238Z,35.95
2023-07-08T07:52:12.236Z,35.64
2023-07-08T07:54:40.380Z,35.83
2023-07-08T07:57:07.543Z,35.57
2023-07-08T07:59:34.526Z,34.40
2023-07-08T08:02:02.946Z,34.04
2023-07-08T08:04:30.071Z,34.08
2023-07-08T08:06:59.352Z,33.61
2023-07-08T08:09:26.168Z,32.70
2023-07-08T08:11:53.299Z,32.53
2023-07-08T08:14:20.527Z,32.40
2023-07-08T08:16:48.750Z,32.56
2023-07-08T08:19:17.181Z,32.19
2023-07-08T08:21:43.928Z,32.16
2023-07-08T08:24:12.433Z,31.95
2023-07-08T08:26:43.587Z,31.23
2023-07-08T08:29:12.954Z,31.46
2023-07-08T08:31:41.247Z,32.25
2023-07-08T08:34:08.218Z,31.50
2023-07-08T08:36:37.106Z,30.94
2023-07-08T08:39:04.371Z,30.79
2023-07-08T08:41:34.684Z,31.27
2023-07-08T08:44:03.777Z,31.25
2023-07-08T08:47:09.633Z,31.26
2023-07-08T08:49:52.025Z,30.24
2023-07-08T08:52:18.993Z,29.83
2023-07-08T08:54:45.747Z,29.98
2023-07-08T08:57:13.617Z,30.11
2023-07-08T08:59:54.830Z,30.48
2023-07-08T09:02:34.393Z,30.39
2023-07-08T09:05:08.886Z,30.56
2023-07-08T09:08:00.370Z,30.32
2023-07-08T09:10:40.727Z,30.13
2023-07-08T09:13:11.225Z,29.71
2023-07-08T09:15:39.533Z,30.02
2023-07-08T09:18:31.243Z,30.71
2023-07-08T09:21:02.334Z,29.70
2023-07-08T09:23:35.259Z,29.39
2023-07-08T09:26:17.891Z,29.97
2023-07-08T09:28:47.324Z,29.75
2023-07-08T09:31:39.624Z,29.24
2023-07-08T09:34:25.349Z,29.91
2023-07-08T09:36:53.509Z,28.43
2023-07-08T09:39:22.600Z,28.10
2023-07-08T09:41:51.094Z,27.85
2023-07-08T09:44:31.389Z,27.55
2023-07-08T09:47:00.742Z,27.96
2023-07-08T09:49:35.108Z,28.86
2023-07-08T09:52:06.290Z,27.57
2023-07-08T09:54:35.938Z,26.78
2023-07-08T09:57:15.650Z,27.15
2023-07-08T09:59:49.159Z,26.88
2023-07-08T10:02:36.395Z,26.81
2023-07-08T10:05:25.447Z,26.99
2023-07-08T10:07:58.582Z,27.26
2023-07-08T10:10:35.523Z,27.47
2023-07-08T10:13:19.416Z,27.78
2023-07-08T10:15:59.123Z,27.91
2023-07-08T10:18:31.000Z,28.30
2023-07-08T10:21:25.734Z,27.55
2023-07-08T10:24:13.333Z,27.02
2023-07-08T10:27:33.643Z,26.98
2023-07-08T10:30:21.387Z,27.39
2023-07-08T10:33:21.037Z,27.32
2023-07-08T10:36:22.972Z,27.64
2023-07-08T10:39:23.573Z,27.54
2023-07-08T10:42:00.334Z,27.61
2023-07-08T10:44:55.247Z,27.89
2023-07-08T10:48:01.879Z,27.36
2023-07-08T10:51:08.159Z,26.97
2023-07-08T10:53:57.979Z,26.90
2023-07-08T10:56:32.499Z,27.20
2023-07-08T10:59:21.594Z,27.28
2023-07-08T11:02:06.715Z,27.05
2023-07-08T11:04:53.727Z,27.19
2023-07-08T11:07:43.420Z,27.03
2023-07-08T11:10:47.926Z,26.96
2023-07-08T11:13:21.072Z,27.73
2023-07-08T11:15:59.570Z,26.58
2023-07-08T11:18:49.757Z,26.47
2023-07-08T11:21:44.868Z,26.61
2023-07-08T11:24:20.959Z,26.47
2023-07-08T11:27:03.666Z,26.15
2023-07-08T11:29:42.432Z,26.31
2023-07-08T11:32:16.762Z,26.77
2023-07-08T11:34:50.490Z,25.70
2023-07-08T11:37:22.306Z,25.76
2023-07-08T11:39:59.937Z,25.43
2023-07-08T11:42:26.590Z,25.33
2023-07-08T11:44:59.541Z,25.31
2023-07-08T11:47:47.735Z,26.10
2023-07-08T11:50:40.057Z,25.66
2023-07-08T11:53:32.906Z,25.69
2023-07-08T11:56:00.778Z,25.09
2023-07-08T11:58:29.591Z,25.36
2023-07-08T12:01:11.660Z,25.09
2023-07-08T12:03:48.033Z,25.25
2023-07-08T12:06:33.394Z,25.60
2023-07-08T12:09:17.849Z,25.72
2023-07-08T12:11:47.330Z,25.21
2023-07-08T12:14:19.265Z,24.62
2023-07-08T12:16:46.008Z,24.82
2023-07-08T12:19:19.571Z,25.13
2023-07-08T12:21:47.839Z,25.02
2023-07-08T12:24:16.071Z,24.85
2023-07-08T12:26:45.757Z,25.44
2023-07-08T12:29:16.098Z,25.00
2023-07-08T12:31:44.051Z,24.70
2023-07-08T12:34:18.595Z,24.65
2023-07-08T12:36:48.390Z,24.46
2023-07-08T12:39:18.371Z,24.56
2023-07-08T12:41:48.738Z,24.28
2023-07-08T12:44:26.498Z,24.66
2023-07-08T12:46:56.767Z,24.56
2023-07-08T12:49:29.432Z,24.36
2023-07-08T12:51:56.259Z,24.62
2023-07-08T12:54:23.489Z,25.01
2023-07-08T12:56:54.543Z,24.93
2023-07-08T12:59:25.719Z,24.96
2023-07-08T13:01:54.755Z,24.82
2023-07-08T13:04:21.851Z,25.20
2023-07-08T13:06:49.768Z,25.06
2023-07-08T13:09:40.913Z,24.98
2023-07-08T13:12:24.721Z,25.20
2023-07-08T13:14:54.782Z,24.61
2023-07-08T13:17:23.442Z,24.82
2023-07-08T13:19:50.869Z,24.88
2023-07-08T13:22:22.278Z,24.79
2023-07-08T13:25:00.338Z,24.58
2023-07-08T13:27:28.172Z,24.41
2023-07-08T13:30:18.196Z,24.34
2023-07-08T13:32:49.747Z,24.29
2023-07-08T13:35:44.076Z,24.46
2023-07-08T13:38:17.532Z,24.73
2023-07-08T13:40:55.216Z,23.81
2023-07-08T13:43:28.181Z,24.01
2023-07-08T13:45:57.304Z,23.89
2023-07-08T13:48:28.047Z,24.22
2023-07-08T13:50:59.222Z,24.62
2023-07-08T13:53:39.754Z,24.41
2023-07-08T13:56:24.705Z,24.15
2023-07-08T13:58:54.360Z,24.12
2023-07-08T14:01:27.242Z,23.29
2023-07-08T14:03:58.977Z,23.95
2023-07-08T14:06:30.364Z,23.95
2023-07-08T14:09:19.091Z,24.26
2023-07-08T14:11:47.262Z,23.86
2023-07-08T14:14:14.168Z,23.99
2023-07-08T14:16:47.464Z,23.87
2023-07-08T14:19:33.193Z,24.08
2023-07-08T14:22:22.112Z,24.21
2023-07-08T14:24:50.439Z,23.88
2023-07-08T14:27:18.828Z,24.05
2023-07-08T14:29:53.507Z,23.85
2023-07-08T14:32:32.217Z,23.58
2023-07-08T14:35:09.774Z,23.95
2023-07-08T14:37:36.538Z,23.93
2023-07-08T14:40:29.205Z,23.64
2023-07-08T14:43:10.593Z,23.30
2023-07-08T14:45:45.697Z,23.08
2023-07-08T14:48:15.226Z,23.29
2023-07-08T14:50:42.622Z,23.77
2023-07-08T14:53:09.792Z,24.15
2023-07-08T14:55:37.301Z,24.50
2023-07-08T14:58:05.313Z,24.78
2023-07-08T15:00:32.139Z,24.61
2023-07-08T15:02:59.532Z,24.56
2023-07-08T15:05:30.118Z,24.93
2023-07-08T15:07:59.607Z,24.60
2023-07-08T15:10:29.649Z,24.59
2023-07-08T15:12:59.492Z,24.51
2023-07-08T15:15:32.348Z,24.38
2023-07-08T15:18:05.867Z,24.55
2023-07-08T15:20:34.135Z,24.36
2023-07-08T15:23:05.172Z,24.64
2023-07-08T15:25:32.193Z,24.75
2023-07-08T15:28:01.741Z,24.29
2023-07-08T15:30:29.886Z,24.10
2023-07-08T15:32:58.091Z,24.34
2023-07-08T15:35:34.532Z,24.60
2023-07-08T15:38:05.240Z,23.77
2023-07-08T15:40:42.559Z,23.84
2023-07-08T15:43:17.478Z,23.94
2023-07-08T15:45:45.893Z,23.72
2023-07-08T15:48:15.808Z,24.44
2023-07-08T15:50:49.295Z,24.44
2023-07-08T15:53:19.427Z,23.88
2023-07-08T15:55:54.971Z,24.13
2023-07-08T15:58:29.636Z,24.42
2023-07-08T16:00:57.050Z,24.39
2023-07-08T16:03:33.449Z,24.50
2023-07-08T16:06:00.905Z,24.60
2023-07-08T16:08:27.820Z,24.98
2023-07-08T16:11:05.180Z,25.20
2023-07-08T16:13:39.279Z,25.16
2023-07-08T16:16:09.078Z,25.53
2023-07-08T16:18:35.795Z,25.63
2023-07-08T16:21:03.272Z,25.74
2023-07-08T16:23:30.895Z,25.59
2023-07-08T16:25:58.511Z,25.43
2023-07-08T16:29:34.132Z,25.57
2023-07-08T16:32:03.137Z,25.59
2023-07-08T16:34:29.960Z,26.07
2023-07-08T16:37:01.128Z,26.29
2023-07-08T16:39:28.345Z,26.47
2023-07-08T16:41:57.883Z,26.40
2023-07-08T16:44:24.724Z,26.70
2023-07-08T16:46:52.636Z,26.83
2023-07-08T16:49:22.269Z,27.27
2023-07-08T16:51:48.955Z,27.27
2023-07-08T16:54:18.541Z,27.33
2023-07-08T16:56:46.521Z,27.62
2023-07-08T16:59:15.321Z,27.94
2023-07-08T17:01:42.797Z,28.18
2023-07-08T17:04:13.975Z,27.93
2023-07-08T17:06:42.511Z,27.79
2023-07-08T17:09:14.016Z,27.49
2023-07-08T17:11:41.716Z,27.79
2023-07-08T17:14:10.373Z,28.09
2023-07-08T17:16:44.381Z,27.96
2023-07-08T17:19:19.648Z,28.07
2023-07-08T17:21:48.622Z,27.94
2023-07-08T17:24:22.529Z,28.04
2023-07-08T17:26:54.198Z,28.15
2023-07-08T17:29:20.930Z,28.11
2023-07-08T17:31:50.463Z,28.44
2023-07-08T17:34:22.819Z,28.87
2023-07-08T17:36:50.300Z,28.96
2023-07-08T17:39:17.451Z,28.66
2023-07-08T17:41:46.279Z,28.64
2023-07-08T17:44:13.526Z,28.53
2023-07-08T17:46:40.434Z,29.05
2023-07-08T17:49:12.478Z,29.81
2023-07-08T17:51:40.666Z,30.69
2023-07-08T17:54:17.622Z,31.66
2023-07-08T17:56:49.454Z,31.57
2023-07-08T17:59:20.987Z,31.66
2023-07-08T18:01:49.480Z,31.26
2023-07-08T18:04:19.229Z,31.39
2023-07-08T18:06:45.890Z,31.74
2023-07-08T18:09:13.344Z,32.33
2023-07-08T18:11:47.583Z,32.72
2023-07-08T18:14:14.711Z,33.44
2023-07-08T18:16:41.873Z,33.83
2023-07-08T18:19:10.214Z,34.17
2023-07-08T18:21:37.128Z,35.06
2023-07-08T18:24:06.231Z,35.76
2023-07-08T18:26:33.752Z,36.22
2023-07-08T18:29:02.592Z,36.54
2023-07-08T18:31:38.546Z,36.67
2023-07-08T18:34:09.237Z,37.13
2023-07-08T18:36:37.843Z,37.41
2023-07-08T18:39:04.962Z,37.75
2023-07-08T18:41:42.958Z,38.06
2023-07-08T18:44:17.576Z,38.53
2023-07-08T18:46:44.361Z,38.47
2023-07-08T18:49:14.556Z,38.63
2023-07-08T18:51:45.341Z,38.68
2023-07-08T18:54:18.808Z,38.81
2023-07-08T18:56:46.571Z,39.05
2023-07-08T18:59:16.917Z,38.99
2023-07-08T19:01:46.189Z,39.10
2023-07-08T19:04:21.677Z,39.20
2023-07-08T19:06:49.938Z,39.25
2023-07-08T19:09:17.374Z,39.64
2023-07-08T19:11:47.029Z,39.87
2023-07-08T19:14:19.145Z,40.19
2023-07-08T19:16:46.057Z,40.43
2023-07-08T19:19:15.329Z,40.56
2023-07-08T19:21:43.912Z,40.72
2023-07-08T19:26:45.292Z,41.06
2023-07-08T19:29:12.006Z,41.20
2023-07-08T19:31:48.309Z,41.24
2023-07-08T19:34:18.726Z,41.19
2023-07-08T19:36:47.967Z,41.61
2023-07-08T19:39:16.628Z,41.84
2023-07-08T19:41:46.292Z,41.85
2023-07-08T19:44:24.252Z,42.27
2023-07-08T19:46:51.099Z,42.18
2023-07-08T19:49:18.215Z,42.38
2023-07-08T19:51:45.438Z,42.45
2023-07-08T19:54:12.289Z,42.42
2023-07-08T19:56:39.762Z,42.46
2023-07-08T19:59:11.173Z,42.64
2023-07-08T20:01:39.013Z,42.75
2023-07-08T20:04:05.948Z,42.87
2023-07-08T20:06:32.879Z,42.92
2023-07-08T20:08:59.897Z,43.16
2023-07-08T20:11:29.122Z,43.14
2023-07-08T20:13:55.903Z,43.27
2023-07-08T20:16:26.076Z,43.28
2023-07-08T20:18:53.418Z,43.40
2023-07-08T20:21:22.627Z,43.43
2023-07-08T20:23:53.338Z,43.38
2023-07-08T20:26:34.160Z,43.29
2023-07-08T20:29:00.978Z,43.20
2023-07-08T20:31:28.494Z,43.45
2023-07-08T20:33:56.614Z,43.56
2023-07-08T20:36:25.816Z,43.40
2023-07-08T20:38:53.421Z,43.27
2023-07-08T20:41:20.434Z,43.40
2023-07-08T20:43:47.201Z,43.46
2023-07-08T20:46:33.728Z,43.35
2023-07-08T20:49:04.297Z,43.43
2023-07-08T20:51:34.454Z,43.45
2023-07-08T20:54:03.613Z,43.37
2023-07-08T20:56:33.967Z,43.66
2023-07-08T20:59:04.858Z,43.66
2023-07-08T21:01:33.725Z,43.70
2023-07-08T21:04:01.665Z,43.78
2023-07-08T21:06:35.408Z,43.82
2023-07-08T21:09:03.431Z,43.85
2023-07-08T21:11:30.700Z,43.49
2023-07-08T21:13:58.272Z,44.62
2023-07-08T21:16:27.712Z,45.06
2023-07-08T21:19:02.799Z,45.28
2023-07-08T21:21:29.665Z,45.50
2023-07-08T21:23:57.685Z,45.60
2023-07-08T21:26:31.348Z,45.70
2023-07-08T21:29:01.484Z,45.63
2023-07-08T21:31:29.794Z,45.63
2023-07-08T21:33:56.687Z,45.53
2023-07-08T21:36:29.650Z,45.52
2023-07-08T21:39:05.130Z,45.84
2023-07-08T21:41:38.044Z,45.77
2023-07-08T21:44:04.723Z,45.61
2023-07-08T21:46:32.748Z,45.67
2023-07-08T21:48:59.527Z,45.65
2023-07-08T21:51:29.682Z,45.67
2023-07-08T21:53:57.686Z,45.64
2023-07-08T21:56:26.282Z,45.32
2023-07-08T21:58:54.008Z,45.26
2023-07-08T22:01:28.604Z,45.36
2023-07-08T22:03:57.297Z,45.08
2023-07-08T22:06:25.173Z,45.18
2023-07-08T22:08:52.082Z,45.22
2023-07-08T22:11:32.376Z,45.14
2023-07-08T22:14:02.113Z,45.00
2023-07-08T22:16:31.705Z,45.05
2023-07-08T22:18:59.563Z,44.90
2023-07-08T22:21:33.254Z,44.95
2023-07-08T22:24:08.384Z,45.11
2023-07-08T22:26:43.926Z,45.16
2023-07-08T22:29:23.797Z,45.13
2023-07-08T22:31:53.355Z,45.10
2023-07-08T22:34:20.055Z,45.21
2023-07-08T22:36:47.787Z,45.19
2023-07-08T22:39:14.951Z,45.42
2023-07-08T22:41:54.865Z,45.25
2023-07-08T22:44:24.372Z,45.34
2023-07-08T22:46:52.217Z,45.32
2023-07-08T22:49:25.549Z,45.48
2023-07-08T22:51:57.243Z,45.49
2023-07-08T22:54:25.267Z,45.68
2023-07-08T22:56:52.675Z,45.98
2023-07-08T22:59:19.549Z,45.82
2023-07-08T23:01:47.626Z,45.97
2023-07-08T23:04:14.449Z,46.10
2023-07-08T23:06:44.222Z,46.20
2023-07-08T23:09:18.712Z,46.48
2023-07-08T23:11:46.112Z,46.76
2023-07-08T23:14:13.019Z,46.83
2023-07-08T23:16:42.126Z,46.99
2023-07-08T23:19:12.968Z,47.08
2023-07-08T23:21:40.488Z,47.04
2023-07-08T23:24:10.801Z,47.13
2023-07-08T23:26:40.048Z,47.00
2023-07-08T23:29:10.178Z,47.01
2023-07-08T23:31:37.239Z,47.15
2023-07-08T23:34:05.735Z,47.10
2023-07-08T23:36:41.323Z,47.45
2023-07-08T23:39:18.024Z,47.50
2023-07-08T23:41:47.679Z,47.59
2023-07-08T23:44:17.081Z,47.57
2023-07-08T23:46:46.773Z,47.67
2023-07-08T23:49:28.878Z,47.63
2023-07-08T23:51:57.725Z,47.76
2023-07-08T23:54:29.921Z,47.68
2023-07-08T23:57:02.725Z,47.76
2023-07-08T23:59:33.456Z,47.69
